Terminal Aerodrome Forecast
Issued by NWS

Home | Current Version | Previous Version | Text Only | Print | Product List | Glossary On
Versions: 1 2 3 4 5 6 7 8 9 10 11 12 13 14 15
000
FTUS42 TJSJ 291100
TAFJBQ
TAF
TJBQ 291120Z 2912/3012 10003KT P6SM SKC
     FM291400 08011KT P6SM SCT025
     FM291800 06012G20KT P6SM VCSH SCT025 BKN050
     FM292300 09008KT P6SM FEW025 SCT060
      AMD NOT SKED 3002/3011=

USA.gov is the U.S. government's official web portal to all federal, state and local government web resources and services.